Time;durP1;ratioP1;P1;durP2;ratioP2;P2;SDS_P1;SDS_P2;PMS_P1;PMS_P2;Temp;Humidity;BMP_temperature;BMP_pressure;BME280_temperature;BME280_humidity;BME280_pressure;Samples;Min_cycle;Max_cycle;Signal;HPM_P1;HPM_P2
2021/08/22 00:00:59;;;;;;;2.73;2.53;;;22.10;99.90;;;;;;4991152;28;20472;-77
2021/08/22 00:03:25;;;;;;;3.40;3.10;;;22.10;99.90;;;;;;4992325;28;20460;-76
2021/08/22 00:05:53;;;;;;;3.70;3.30;;;22.10;99.90;;;;;;4974786;28;20536;-76
2021/08/22 00:08:21;;;;;;;4.13;2.60;;;22.00;99.90;;;;;;4983943;28;20477;-76
2021/08/22 00:10:48;;;;;;;3.33;3.10;;;22.00;99.90;;;;;;4984697;28;20956;-76
2021/08/22 00:13:16;;;;;;;3.93;3.60;;;22.00;99.90;;;;;;4992964;28;20480;-77
2021/08/22 00:15:43;;;;;;;3.63;3.33;;;22.00;99.90;;;;;;4993016;28;20460;-77
2021/08/22 00:18:11;;;;;;;3.40;3.10;;;22.00;99.90;;;;;;4994196;28;21037;-76
2021/08/22 00:20:37;;;;;;;3.20;2.87;;;22.00;99.90;;;;;;4988673;28;20865;-76
2021/08/22 00:23:04;;;;;;;3.97;3.40;;;22.00;99.90;;;;;;4993154;28;20464;-76
2021/08/22 00:25:32;;;;;;;3.30;3.00;;;22.00;99.90;;;;;;4993849;28;20456;-76
2021/08/22 00:27:58;;;;;;;3.67;3.37;;;22.00;99.90;;;;;;4989448;28;20452;-76
2021/08/22 00:30:25;;;;;;;3.40;3.10;;;22.00;99.90;;;;;;4993554;28;20467;-76
2021/08/22 00:32:52;;;;;;;3.75;3.45;;;21.90;99.90;;;;;;4980928;28;20456;-76
2021/08/22 00:35:20;;;;;;;3.00;2.70;;;21.90;99.90;;;;;;4993140;28;20206;-76
2021/08/22 00:37:47;;;;;;;3.08;2.80;;;21.90;99.90;;;;;;4992899;28;20445;-76
2021/08/22 00:40:13;;;;;;;3.50;3.20;;;21.90;99.90;;;;;;4986186;28;20198;-76
2021/08/22 00:42:40;;;;;;;3.17;2.87;;;21.90;99.90;;;;;;4992879;28;20866;-76
2021/08/22 00:45:09;;;;;;;3.23;2.97;;;21.90;99.90;;;;;;4993526;28;20849;-76
2021/08/22 00:47:38;;;;;;;3.23;2.93;;;21.90;99.90;;;;;;4991514;28;20888;-76
2021/08/22 00:50:05;;;;;;;3.67;3.22;;;21.90;99.90;;;;;;4993153;28;20929;-77
2021/08/22 00:52:34;;;;;;;3.80;3.50;;;21.80;99.90;;;;;;4992703;28;20201;-77
2021/08/22 00:55:03;;;;;;;3.40;3.10;;;21.80;99.90;;;;;;4992701;28;20205;-77
2021/08/22 00:57:30;;;;;;;3.30;3.00;;;21.80;99.90;;;;;;4993386;28;20252;-77
2021/08/22 00:59:57;;;;;;;3.20;2.92;;;21.80;99.90;;;;;;4982365;28;20866;-77
2021/08/22 01:02:29;;;;;;;3.22;3.03;;;21.80;99.90;;;;;;4990079;28;20207;-77
2021/08/22 01:05:05;;;;;;;3.60;3.30;;;21.80;99.90;;;;;;4988898;28;20198;-76
2021/08/22 01:07:45;;;;;;;3.75;3.15;;;21.80;99.90;;;;;;4992235;28;20217;-77
2021/08/22 01:10:14;;;;;;;3.85;3.55;;;21.70;99.90;;;;;;4985009;28;20201;-77
2021/08/22 01:12:45;;;;;;;3.13;2.85;;;21.80;99.90;;;;;;4992984;28;20233;-77
2021/08/22 01:15:14;;;;;;;3.40;3.10;;;21.70;99.90;;;;;;4986303;28;20237;-77
2021/08/22 01:17:46;;;;;;;3.60;3.35;;;21.70;99.90;;;;;;4993053;28;20281;-76
2021/08/22 01:20:21;;;;;;;3.50;2.95;;;21.70;99.90;;;;;;4992256;28;20241;-76
2021/08/22 01:22:51;;;;;;;4.10;3.00;;;21.70;99.90;;;;;;4989147;28;20643;-76
2021/08/22 01:25:18;;;;;;;3.95;3.05;;;21.70;99.90;;;;;;4993342;28;20212;-76
2021/08/22 01:27:46;;;;;;;3.65;3.35;;;21.70;99.90;;;;;;4987164;28;20273;-76
2021/08/22 01:30:15;;;;;;;3.92;3.53;;;21.70;99.90;;;;;;4989885;28;20256;-76
2021/08/22 01:32:44;;;;;;;4.05;3.63;;;21.70;99.90;;;;;;4992612;28;20205;-76
2021/08/22 01:35:13;;;;;;;3.90;3.17;;;21.60;99.90;;;;;;4992225;28;20197;-76
2021/08/22 01:37:41;;;;;;;3.55;3.30;;;21.60;99.90;;;;;;4992123;28;20248;-76
2021/08/22 01:40:11;;;;;;;3.50;2.67;;;21.60;99.90;;;;;;4991211;28;20244;-76
2021/08/22 01:42:39;;;;;;;3.73;3.43;;;21.60;99.90;;;;;;4973547;28;20671;-76
2021/08/22 01:45:08;;;;;;;3.65;3.30;;;21.60;99.90;;;;;;4974196;28;20460;-76
2021/08/22 01:47:36;;;;;;;3.83;3.05;;;21.60;99.90;;;;;;4986337;28;20214;-76
2021/08/22 01:50:06;;;;;;;3.97;3.67;;;21.60;99.90;;;;;;4992015;28;20238;-76
2021/08/22 01:52:33;;;;;;;5.07;3.72;;;21.60;99.90;;;;;;4982923;28;20205;-76
2021/08/22 01:55:02;;;;;;;3.55;3.25;;;21.60;99.90;;;;;;4993195;28;20201;-76
2021/08/22 01:57:29;;;;;;;3.50;3.20;;;21.60;99.90;;;;;;4992980;28;20654;-76
2021/08/22 01:59:56;;;;;;;4.32;3.90;;;21.50;99.90;;;;;;4992803;28;20654;-76
2021/08/22 02:02:23;;;;;;;3.42;3.10;;;21.50;99.90;;;;;;4992106;28;20253;-76
2021/08/22 02:04:54;;;;;;;3.50;2.90;;;21.50;99.90;;;;;;4990112;28;20244;-76
2021/08/22 02:07:26;;;;;;;4.50;3.90;;;21.50;99.90;;;;;;4992438;28;20621;-77
2021/08/22 02:10:00;;;;;;;3.65;3.35;;;21.50;99.90;;;;;;4975464;28;20657;-77
2021/08/22 02:12:27;;;;;;;3.45;3.15;;;21.50;99.90;;;;;;4983324;28;20760;-77
2021/08/22 02:15:01;;;;;;;3.57;3.27;;;21.50;99.90;;;;;;4980143;28;20193;-78
2021/08/22 02:17:32;;;;;;;4.15;3.85;;;21.50;99.90;;;;;;4994480;28;20948;-78
2021/08/22 02:20:00;;;;;;;4.07;3.72;;;21.50;99.90;;;;;;4996000;28;20205;-78
2021/08/22 02:22:28;;;;;;;3.25;2.95;;;21.50;99.90;;;;;;4994653;28;20198;-78
2021/08/22 02:24:56;;;;;;;4.35;3.55;;;21.50;99.90;;;;;;4977019;28;20234;-78
2021/08/22 02:27:24;;;;;;;3.22;2.92;;;21.50;99.90;;;;;;4976134;28;20222;-78
2021/08/22 02:29:52;;;;;;;4.03;3.63;;;21.40;99.90;;;;;;4992467;28;20197;-78
2021/08/22 02:32:19;;;;;;;3.78;3.45;;;21.40;99.90;;;;;;4982845;28;20206;-78
2021/08/22 02:34:46;;;;;;;3.88;3.47;;;21.40;99.90;;;;;;4992511;28;20201;-77
2021/08/22 02:37:12;;;;;;;3.05;2.80;;;21.40;99.90;;;;;;4998396;28;20197;-77
2021/08/22 02:39:40;;;;;;;3.20;2.88;;;21.40;99.90;;;;;;4998198;28;20201;-77
2021/08/22 02:42:07;;;;;;;3.97;3.67;;;21.40;99.90;;;;;;4998275;28;20193;-77
2021/08/22 02:44:37;;;;;;;3.22;2.92;;;21.40;99.90;;;;;;4997620;28;20205;-78
2021/08/22 02:47:04;;;;;;;3.47;3.17;;;21.40;99.90;;;;;;4995792;28;20225;-76
2021/08/22 02:49:31;;;;;;;3.38;3.15;;;21.40;99.90;;;;;;4987941;28;20201;-76
2021/08/22 02:51:57;;;;;;;3.80;3.47;;;21.40;99.90;;;;;;4994571;28;20593;-77
2021/08/22 02:54:24;;;;;;;2.80;2.60;;;21.40;99.90;;;;;;4994360;28;20864;-76
2021/08/22 02:56:52;;;;;;;4.00;3.58;;;21.30;99.90;;;;;;4976252;28;20206;-76
2021/08/22 02:59:19;;;;;;;3.53;3.22;;;21.30;99.90;;;;;;4985812;28;20210;-76
2021/08/22 03:01:45;;;;;;;3.35;3.03;;;21.30;99.90;;;;;;4993323;28;20202;-76
2021/08/22 03:04:12;;;;;;;3.65;2.97;;;21.30;99.90;;;;;;4988038;28;20559;-76
2021/08/22 03:06:39;;;;;;;2.92;2.72;;;21.30;99.90;;;;;;4986196;28;20225;-76
2021/08/22 03:09:06;;;;;;;3.80;3.50;;;21.30;99.90;;;;;;4984008;28;20532;-75
2021/08/22 03:11:33;;;;;;;3.05;2.80;;;21.20;99.90;;;;;;4977175;28;20745;-76
2021/08/22 03:14:01;;;;;;;3.15;2.85;;;21.30;99.90;;;;;;4986232;28;20201;-76
2021/08/22 03:16:27;;;;;;;3.70;2.60;;;21.20;99.90;;;;;;4981528;28;20295;-76
2021/08/22 03:18:54;;;;;;;4.10;2.92;;;21.20;99.90;;;;;;4995258;28;20637;-76
2021/08/22 03:21:21;;;;;;;2.53;2.33;;;21.20;99.90;;;;;;4994602;28;20299;-76
2021/08/22 03:23:48;;;;;;;3.05;2.85;;;21.20;99.90;;;;;;4994781;28;20264;-76
2021/08/22 03:26:15;;;;;;;2.50;2.30;;;21.20;99.90;;;;;;4992107;28;20198;-76
2021/08/22 03:28:42;;;;;;;2.88;2.55;;;21.20;99.90;;;;;;4983156;28;20276;-76
2021/08/22 03:31:10;;;;;;;3.70;3.40;;;21.10;99.90;;;;;;4994526;28;20272;-76
2021/08/22 03:33:37;;;;;;;3.40;2.90;;;21.20;99.90;;;;;;4994357;28;20207;-75
2021/08/22 03:36:05;;;;;;;4.50;3.22;;;21.10;99.90;;;;;;4976083;28;20202;-76
2021/08/22 03:38:32;;;;;;;3.53;3.22;;;21.10;99.90;;;;;;4980699;28;20655;-75
2021/08/22 03:40:59;;;;;;;6.25;3.03;;;21.10;99.90;;;;;;4988667;28;20204;-76
2021/08/22 03:43:26;;;;;;;2.72;2.53;;;21.10;99.90;;;;;;4988081;28;20202;-76
2021/08/22 03:45:52;;;;;;;2.90;2.70;;;21.10;99.90;;;;;;4976748;28;20771;-76
2021/08/22 03:48:20;;;;;;;2.15;1.95;;;21.10;99.90;;;;;;4993111;28;20291;-76
2021/08/22 03:50:47;;;;;;;2.92;2.72;;;21.10;99.90;;;;;;4994031;28;20201;-76
2021/08/22 03:53:14;;;;;;;2.95;2.40;;;21.00;99.90;;;;;;4993358;28;20682;-76
2021/08/22 03:55:43;;;;;;;2.83;2.63;;;21.10;99.90;;;;;;4994736;28;20208;-76
2021/08/22 03:58:10;;;;;;;2.78;2.50;;;21.10;99.90;;;;;;4993874;28;20205;-76
2021/08/22 04:00:37;;;;;;;2.60;2.38;;;21.00;99.90;;;;;;4992834;28;20205;-76
2021/08/22 04:03:04;;;;;;;2.63;2.22;;;21.00;99.90;;;;;;4988727;28;20609;-76
2021/08/22 04:05:32;;;;;;;2.50;2.30;;;21.00;99.90;;;;;;4994281;28;20209;-75
2021/08/22 04:08:00;;;;;;;3.00;2.70;;;21.00;99.90;;;;;;4983676;28;20229;-76
2021/08/22 04:10:26;;;;;;;2.65;2.45;;;21.00;99.90;;;;;;4992887;28;20197;-76
2021/08/22 04:12:54;;;;;;;2.83;2.63;;;20.90;99.90;;;;;;4993878;28;20233;-76
2021/08/22 04:15:20;;;;;;;2.70;2.50;;;20.90;99.90;;;;;;4991878;28;20578;-76
2021/08/22 04:17:47;;;;;;;2.47;2.28;;;20.90;99.90;;;;;;4993946;28;20208;-76
2021/08/22 04:20:14;;;;;;;3.00;2.70;;;20.90;99.90;;;;;;4991586;28;20197;-76
2021/08/22 04:22:42;;;;;;;2.72;2.50;;;20.90;99.90;;;;;;4991699;28;20631;-76
2021/08/22 04:25:11;;;;;;;2.47;2.25;;;20.90;99.90;;;;;;4974612;28;20643;-75
2021/08/22 04:27:40;;;;;;;2.30;2.10;;;20.90;99.90;;;;;;4985085;28;20267;-76
2021/08/22 04:30:07;;;;;;;2.53;2.30;;;20.90;99.90;;;;;;4992503;28;20200;-76
2021/08/22 04:32:34;;;;;;;4.13;2.85;;;20.90;99.90;;;;;;4993694;28;20259;-76
2021/08/22 04:35:01;;;;;;;2.60;2.33;;;20.80;99.90;;;;;;4993356;28;20746;-76
2021/08/22 04:37:28;;;;;;;3.00;2.70;;;20.80;99.90;;;;;;4986566;28;20190;-76
2021/08/22 04:39:58;;;;;;;2.53;2.33;;;20.80;99.90;;;;;;4991190;28;20209;-75
2021/08/22 04:42:24;;;;;;;3.00;2.70;;;20.80;99.90;;;;;;4990256;28;20202;-76
2021/08/22 04:44:51;;;;;;;2.90;2.58;;;20.80;99.90;;;;;;4974308;28;20209;-75
2021/08/22 04:47:18;;;;;;;2.75;2.55;;;20.80;99.90;;;;;;4975423;28;20272;-75
2021/08/22 04:49:45;;;;;;;2.80;2.60;;;20.80;99.90;;;;;;4991649;28;20263;-76
2021/08/22 04:52:11;;;;;;;3.33;3.03;;;20.80;99.90;;;;;;4988577;28;20205;-76
2021/08/22 04:54:38;;;;;;;2.90;2.70;;;20.80;99.90;;;;;;4993048;28;20213;-76
2021/08/22 04:57:06;;;;;;;3.15;2.85;;;20.80;99.90;;;;;;4992606;28;20201;-76
2021/08/22 04:59:33;;;;;;;5.25;3.13;;;20.70;99.90;;;;;;4993239;28;20209;-76
2021/08/22 05:02:00;;;;;;;3.10;2.80;;;20.70;99.90;;;;;;4993327;28;20199;-76
2021/08/22 05:04:28;;;;;;;4.15;2.80;;;20.70;99.90;;;;;;4991127;28;20206;-76
2021/08/22 05:06:55;;;;;;;2.88;2.67;;;20.70;99.90;;;;;;4984761;28;20673;-76
2021/08/22 05:09:22;;;;;;;2.85;2.47;;;20.70;99.90;;;;;;4992826;28;20194;-76
2021/08/22 05:11:48;;;;;;;3.35;2.90;;;20.70;99.90;;;;;;4980519;28;20226;-76
2021/08/22 05:14:16;;;;;;;2.75;2.45;;;20.70;99.90;;;;;;4973721;28;20544;-76
2021/08/22 05:16:43;;;;;;;3.30;3.00;;;20.70;99.90;;;;;;4991859;28;20214;-76
2021/08/22 05:19:10;;;;;;;2.58;2.35;;;20.60;99.90;;;;;;4993308;28;20201;-76
2021/08/22 05:21:36;;;;;;;3.05;2.85;;;20.60;99.90;;;;;;4993333;28;20821;-76
2021/08/22 05:24:03;;;;;;;3.80;3.47;;;20.60;99.90;;;;;;4992926;28;20726;-76
2021/08/22 05:26:30;;;;;;;3.45;3.15;;;20.60;99.90;;;;;;4975798;28;20249;-76
2021/08/22 05:28:57;;;;;;;3.50;3.20;;;20.60;99.90;;;;;;4988286;28;20213;-76
2021/08/22 05:31:25;;;;;;;4.00;3.60;;;20.60;99.90;;;;;;4981699;28;20207;-76
2021/08/22 05:33:52;;;;;;;4.35;3.95;;;20.60;99.90;;;;;;4989727;28;20263;-76
2021/08/22 05:36:21;;;;;;;3.70;3.40;;;20.60;99.90;;;;;;4991531;28;20209;-76
2021/08/22 05:38:49;;;;;;;4.43;3.78;;;20.60;99.90;;;;;;4992419;28;20197;-76
2021/08/22 05:41:16;;;;;;;3.80;3.50;;;20.60;99.90;;;;;;4992320;28;20189;-76
2021/08/22 05:43:43;;;;;;;4.40;4.00;;;20.60;99.90;;;;;;4973898;28;20194;-76
2021/08/22 05:46:10;;;;;;;4.95;4.50;;;20.50;99.90;;;;;;4986731;28;20268;-76
2021/08/22 05:48:38;;;;;;;5.25;4.75;;;20.50;99.90;;;;;;4984384;28;20225;-76
2021/08/22 05:51:05;;;;;;;4.43;4.03;;;20.50;99.90;;;;;;4992929;28;20201;-76
2021/08/22 05:53:32;;;;;;;5.07;4.68;;;20.50;99.90;;;;;;4984269;28;20658;-76
2021/08/22 05:55:59;;;;;;;5.65;5.15;;;20.50;99.90;;;;;;4992437;28;20252;-76
2021/08/22 05:58:26;;;;;;;6.43;5.47;;;20.50;99.90;;;;;;4990775;28;20210;-77
2021/08/22 06:00:53;;;;;;;6.13;5.57;;;20.50;99.90;;;;;;4992977;28;20205;-77
2021/08/22 06:03:19;;;;;;;5.70;5.20;;;20.50;99.90;;;;;;4982483;28;20630;-77
2021/08/22 06:05:49;;;;;;;6.05;5.45;;;20.50;99.90;;;;;;4989753;28;20216;-77
2021/08/22 06:08:16;;;;;;;7.00;6.25;;;20.50;99.90;;;;;;4988253;28;20309;-77
2021/08/22 06:10:43;;;;;;;7.28;6.68;;;20.50;99.90;;;;;;4980504;28;20661;-77
2021/08/22 06:13:10;;;;;;;7.97;7.18;;;20.50;99.90;;;;;;4988294;28;20229;-78
2021/08/22 06:15:36;;;;;;;7.82;6.90;;;20.50;99.90;;;;;;4990491;28;20716;-77
2021/08/22 06:18:03;;;;;;;10.88;7.65;;;20.50;99.90;;;;;;4985176;28;20547;-77
2021/08/22 06:20:30;;;;;;;7.78;6.10;;;20.50;99.90;;;;;;4995280;28;20248;-77
2021/08/22 06:22:58;;;;;;;7.85;7.15;;;20.50;99.90;;;;;;4993697;28;20260;-77
2021/08/22 06:25:25;;;;;;;9.23;8.25;;;20.50;99.90;;;;;;4986992;28;20205;-77
2021/08/22 06:27:52;;;;;;;8.75;7.88;;;20.50;99.90;;;;;;4996182;28;20283;-77
2021/08/22 06:30:19;;;;;;;7.20;6.50;;;20.50;99.90;;;;;;4982923;28;20205;-77
2021/08/22 06:32:45;;;;;;;8.18;7.38;;;20.50;99.90;;;;;;4989401;28;20202;-76
2021/08/22 06:35:12;;;;;;;9.18;8.27;;;20.50;99.90;;;;;;4994648;28;20268;-77
2021/08/22 06:37:40;;;;;;;9.80;8.38;;;20.50;99.90;;;;;;4995923;28;20208;-76
2021/08/22 06:40:10;;;;;;;10.00;9.00;;;20.50;99.90;;;;;;4993545;28;20578;-77
2021/08/22 06:42:37;;;;;;;9.52;8.73;;;20.40;99.90;;;;;;4991011;28;20760;-77
2021/08/22 06:45:04;;;;;;;10.55;9.45;;;20.40;99.90;;;;;;4985314;28;20197;-77
2021/08/22 06:47:31;;;;;;;9.25;8.32;;;20.40;99.90;;;;;;4994078;28;20202;-77
2021/08/22 06:49:58;;;;;;;10.00;9.00;;;20.40;99.90;;;;;;4995681;28;20653;-77
2021/08/22 06:52:25;;;;;;;12.45;11.25;;;20.40;99.90;;;;;;4996495;28;20602;-77
2021/08/22 06:54:51;;;;;;;11.88;10.68;;;20.40;99.90;;;;;;4990790;28;20602;-77
2021/08/22 06:57:19;;;;;;;13.18;11.93;;;20.40;99.90;;;;;;4994848;28;20201;-77
2021/08/22 06:59:46;;;;;;;12.32;11.05;;;20.40;99.90;;;;;;4984804;28;20201;-77
2021/08/22 07:02:13;;;;;;;13.40;11.88;;;20.40;99.90;;;;;;4995666;28;20204;-77
2021/08/22 07:04:39;;;;;;;12.57;11.38;;;20.40;99.90;;;;;;4995065;28;20198;-76
2021/08/22 07:07:07;;;;;;;12.63;11.38;;;20.40;99.90;;;;;;4995691;28;20255;-77
2021/08/22 07:09:33;;;;;;;13.90;12.50;;;20.40;99.90;;;;;;4985892;28;20235;-77
2021/08/22 07:12:00;;;;;;;12.27;11.10;;;20.40;99.90;;;;;;4994215;28;20229;-77
2021/08/22 07:14:28;;;;;;;12.90;11.48;;;20.40;99.90;;;;;;4985638;28;20726;-79
2021/08/22 07:16:55;;;;;;;11.15;10.15;;;20.40;99.90;;;;;;5004641;28;20205;-79
2021/08/22 07:19:22;;;;;;;12.63;11.43;;;20.40;99.90;;;;;;5005683;28;20255;-79
2021/08/22 07:21:49;;;;;;;13.52;12.13;;;20.40;99.90;;;;;;5005639;28;20201;-79
2021/08/22 07:24:15;;;;;;;11.23;10.05;;;20.40;99.90;;;;;;4990605;28;20229;-78
2021/08/22 07:26:42;;;;;;;14.45;12.30;;;20.40;99.90;;;;;;4999573;28;20229;-78
2021/08/22 07:29:09;;;;;;;11.30;10.20;;;20.40;99.90;;;;;;4983253;28;20273;-78
2021/08/22 07:31:37;;;;;;;13.35;12.07;;;20.40;99.90;;;;;;4998362;28;20652;-78
2021/08/22 07:34:04;;;;;;;11.80;10.55;;;20.30;99.90;;;;;;4999348;28;20201;-80
2021/08/22 07:36:31;;;;;;;10.95;9.70;;;20.40;99.90;;;;;;4994400;28;20198;-79
2021/08/22 07:38:57;;;;;;;12.77;11.25;;;20.40;99.90;;;;;;5002587;28;20306;-78
2021/08/22 07:41:24;;;;;;;12.05;10.75;;;20.40;99.90;;;;;;4999430;28;20221;-79
2021/08/22 07:43:51;;;;;;;11.60;10.43;;;20.40;99.90;;;;;;4999158;28;20590;-78
2021/08/22 07:46:17;;;;;;;11.40;10.40;;;20.40;99.90;;;;;;4994799;28;20264;-78
2021/08/22 07:48:45;;;;;;;12.48;10.93;;;20.40;99.90;;;;;;4990470;28;20268;-79
2021/08/22 07:51:12;;;;;;;12.63;11.38;;;20.40;99.90;;;;;;4996586;28;20201;-78
2021/08/22 07:53:39;;;;;;;13.70;12.30;;;20.40;99.90;;;;;;4994262;28;20201;-78
2021/08/22 07:56:06;;;;;;;12.90;11.43;;;20.40;99.90;;;;;;5004767;28;20648;-79
2021/08/22 07:58:33;;;;;;;11.68;10.45;;;20.50;99.90;;;;;;5008181;28;20223;-78
2021/08/22 08:00:59;;;;;;;11.52;10.43;;;20.70;99.90;;;;;;5005819;28;20201;-79
2021/08/22 08:03:26;;;;;;;11.57;10.50;;;20.90;99.90;;;;;;5006898;28;20210;-79
2021/08/22 08:05:54;;;;;;;11.00;9.90;;;21.00;99.90;;;;;;4996282;28;20638;-79
2021/08/22 08:08:22;;;;;;;12.32;10.50;;;21.10;99.90;;;;;;4992413;28;20241;-78
2021/08/22 08:10:48;;;;;;;11.73;10.63;;;21.10;99.90;;;;;;4980400;28;20206;-78
2021/08/22 08:13:15;;;;;;;12.10;10.75;;;21.10;99.90;;;;;;4998647;28;20236;-79
2021/08/22 08:15:43;;;;;;;11.32;10.23;;;21.20;99.90;;;;;;4999071;28;20280;-78
2021/08/22 08:18:10;;;;;;;11.67;10.57;;;21.30;99.90;;;;;;4993934;28;20206;-78
2021/08/22 08:20:37;;;;;;;10.97;9.97;;;21.50;99.90;;;;;;4995330;28;20449;-78
2021/08/22 08:23:06;;;;;;;10.40;9.40;;;21.70;99.90;;;;;;4992405;28;20479;-78
2021/08/22 08:25:34;;;;;;;10.67;9.60;;;21.80;99.90;;;;;;4976144;28;20457;-78
2021/08/22 08:28:01;;;;;;;10.20;9.20;;;21.70;99.90;;;;;;4995751;28;20460;-78
2021/08/22 08:30:28;;;;;;;10.60;9.60;;;21.70;99.90;;;;;;4994925;28;20849;-78
2021/08/22 08:32:54;;;;;;;9.93;8.93;;;21.70;99.90;;;;;;4993323;28;20205;-77
2021/08/22 08:35:21;;;;;;;10.73;9.73;;;21.80;99.90;;;;;;4994908;28;20962;-77
2021/08/22 08:37:48;;;;;;;10.10;9.20;;;21.90;99.90;;;;;;4993507;28;20854;-78
2021/08/22 08:40:16;;;;;;;10.63;9.53;;;22.00;99.90;;;;;;4993711;28;20460;-77
2021/08/22 08:42:44;;;;;;;9.93;9.00;;;22.00;99.90;;;;;;4987303;28;20473;-77
2021/08/22 08:45:17;;;;;;;10.50;9.50;;;22.00;99.90;;;;;;4993731;28;20460;-77
2021/08/22 08:47:46;;;;;;;10.93;9.80;;;22.00;99.90;;;;;;4986933;28;20456;-77
2021/08/22 08:50:16;;;;;;;10.80;9.70;;;21.90;99.90;;;;;;4994128;28;21020;-77
2021/08/22 08:52:47;;;;;;;9.40;8.53;;;22.00;99.90;;;;;;4993580;28;20448;-77
2021/08/22 08:55:24;;;;;;;10.73;9.63;;;22.10;99.90;;;;;;4987767;28;20453;-77
2021/08/22 08:57:51;;;;;;;9.20;8.33;;;22.10;99.90;;;;;;4988888;28;20543;-77
2021/08/22 09:00:17;;;;;;;10.30;9.40;;;22.20;99.90;;;;;;4993020;28;20972;-77
2021/08/22 09:02:44;;;;;;;10.17;9.17;;;22.30;99.90;;;;;;4985590;28;20462;-77
2021/08/22 09:05:43;;;;;;;14.27;10.23;;;22.40;99.90;;;;;;4984380;28;20444;-77
2021/08/22 09:08:48;;;;;;;10.27;9.23;;;22.30;99.90;;;;;;4991062;28;20547;-77
2021/08/22 09:12:00;;;;;;;9.70;8.80;;;22.20;99.90;;;;;;4974926;28;20445;-78
2021/08/22 09:15:01;;;;;;;10.57;9.67;;;22.10;99.90;;;;;;4990361;28;20457;-77
2021/08/22 09:18:05;;;;;;;11.53;10.43;;;21.90;99.90;;;;;;4976158;28;20511;-77
2021/08/22 09:21:08;;;;;;;9.73;8.83;;;21.90;99.90;;;;;;4977734;28;20436;-77
2021/08/22 09:24:17;;;;;;;10.30;9.30;;;21.90;99.90;;;;;;4987147;28;20824;-77
2021/08/22 09:27:32;;;;;;;10.50;9.57;;;21.90;99.90;;;;;;4993131;28;20443;-77
2021/08/22 09:30:36;;;;;;;9.85;8.88;;;21.90;99.90;;;;;;4991186;28;20980;-77
2021/08/22 09:33:36;;;;;;;10.80;9.77;;;21.90;99.90;;;;;;4992901;28;20208;-77
2021/08/22 09:36:42;;;;;;;9.10;8.30;;;21.90;99.90;;;;;;4938312;28;20445;-77
2021/08/22 09:40:09;;;;;;;9.80;8.90;;;21.90;99.90;;;;;;4945045;28;20952;-77
2021/08/22 09:43:08;;;;;;;9.83;9.00;;;21.90;99.90;;;;;;4949442;28;20453;-77
2021/08/22 09:46:26;;;;;;;9.40;8.37;;;21.90;99.90;;;;;;4941764;28;20507;-76
2021/08/22 09:49:30;;;;;;;9.57;8.67;;;21.90;99.90;;;;;;4977062;28;20516;-77
2021/08/22 09:52:36;;;;;;;9.27;8.43;;;21.90;99.90;;;;;;4988569;28;20452;-77
2021/08/22 09:55:50;;;;;;;10.70;9.60;;;21.90;99.90;;;;;;4994477;28;20922;-77
2021/08/22 09:58:46;;;;;;;9.90;8.90;;;21.80;99.90;;;;;;4994299;28;20448;-76
2021/08/22 10:01:58;;;;;;;9.70;8.90;;;21.90;99.90;;;;;;4977216;28;20561;-77
2021/08/22 10:04:58;;;;;;;10.40;9.40;;;21.90;99.90;;;;;;4984455;28;20453;-77
2021/08/22 10:07:51;;;;;;;9.80;9.00;;;22.00;99.90;;;;;;5000151;28;20456;-77
2021/08/22 10:10:21;;;;;;;8.90;8.20;;;22.10;99.90;;;;;;5000329;28;20520;-78
2021/08/22 10:12:51;;;;;;;10.40;9.50;;;22.10;99.90;;;;;;4990970;28;20488;-76
2021/08/22 10:15:19;;;;;;;9.20;8.47;;;22.20;99.90;;;;;;5000477;28;20460;-79
2021/08/22 10:17:47;;;;;;;10.50;9.60;;;22.30;99.90;;;;;;5002911;28;20959;-78
2021/08/22 10:20:14;;;;;;;8.70;8.00;;;22.30;99.90;;;;;;4998929;28;20503;-78
2021/08/22 10:22:41;;;;;;;8.83;8.13;;;22.40;99.90;;;;;;5003603;28;20555;-78
2021/08/22 10:25:10;;;;;;;9.00;8.20;;;22.40;99.90;;;;;;5005199;28;20460;-79
2021/08/22 10:27:49;;;;;;;9.50;8.73;;;22.40;99.90;;;;;;5003391;28;20464;-78
2021/08/22 10:30:18;;;;;;;8.60;7.90;;;22.40;99.90;;;;;;4994639;28;20465;-78
2021/08/22 10:33:13;;;;;;;8.83;8.13;;;22.40;99.90;;;;;;5007718;28;20448;-78
2021/08/22 10:35:41;;;;;;;9.00;8.30;;;22.40;99.90;;;;;;5006339;28;20459;-79
2021/08/22 10:38:28;;;;;;;8.83;8.13;;;22.50;99.90;;;;;;5006454;28;20508;-78
2021/08/22 10:40:58;;;;;;;8.60;7.90;;;22.40;99.90;;;;;;5000589;28;20854;-78
2021/08/22 10:43:41;;;;;;;7.87;7.27;;;22.40;99.90;;;;;;4985557;28;20468;-78
2021/08/22 10:46:09;;;;;;;8.50;7.80;;;22.40;99.90;;;;;;4983987;28;20500;-77
2021/08/22 10:48:46;;;;;;;8.80;8.03;;;22.40;99.90;;;;;;4979802;28;20454;-78
2021/08/22 10:51:13;;;;;;;7.63;6.93;;;22.40;99.90;;;;;;5004208;28;20865;-78
2021/08/22 10:53:43;;;;;;;7.67;7.00;;;22.40;99.90;;;;;;4996700;28;20464;-78
2021/08/22 10:56:40;;;;;;;7.80;7.00;;;22.40;99.90;;;;;;5002523;28;20452;-78
2021/08/22 10:59:09;;;;;;;6.17;5.57;;;22.40;99.90;;;;;;4996640;28;20456;-78
2021/08/22 11:01:38;;;;;;;7.47;6.87;;;22.40;99.90;;;;;;4989595;28;20457;-77
2021/08/22 11:04:07;;;;;;;6.10;5.50;;;22.50;99.90;;;;;;4982850;28;20940;-77
2021/08/22 11:06:34;;;;;;;6.40;5.73;;;22.50;99.90;;;;;;4994909;28;20469;-78
2021/08/22 11:09:01;;;;;;;6.00;5.60;;;22.40;99.90;;;;;;4986707;28;20469;-77
2021/08/22 11:11:28;;;;;;;6.37;5.80;;;22.50;99.90;;;;;;5003345;28;20479;-77
2021/08/22 11:13:56;;;;;;;6.60;6.10;;;22.40;99.90;;;;;;5003591;28;20455;-78
2021/08/22 11:16:40;;;;;;;5.73;5.23;;;22.40;99.90;;;;;;4995271;28;20468;-77
2021/08/22 11:19:08;;;;;;;5.90;5.03;;;22.40;99.90;;;;;;4988894;28;20466;-78
2021/08/22 11:21:34;;;;;;;5.30;4.90;;;22.40;99.90;;;;;;4990450;28;20907;-77
2021/08/22 11:24:05;;;;;;;6.23;5.73;;;22.40;99.90;;;;;;4980285;28;20475;-77
2021/08/22 11:26:32;;;;;;;5.73;5.17;;;22.40;99.90;;;;;;4995755;28;20437;-77
2021/08/22 11:29:05;;;;;;;6.27;5.70;;;22.40;99.90;;;;;;4995914;28;20452;-77
2021/08/22 11:31:35;;;;;;;5.40;4.90;;;22.40;99.90;;;;;;4997148;28;21112;-77
2021/08/22 11:34:12;;;;;;;5.30;4.80;;;22.40;99.90;;;;;;4987406;28;20817;-77
2021/08/22 11:36:39;;;;;;;6.10;5.50;;;22.40;99.90;;;;;;4996189;28;20879;-78
2021/08/22 11:39:14;;;;;;;5.40;4.90;;;22.50;99.90;;;;;;4986024;28;20456;-77
2021/08/22 11:41:46;;;;;;;5.00;4.50;;;22.40;99.90;;;;;;4995379;28;20447;-77
2021/08/22 11:44:12;;;;;;;5.40;5.00;;;22.50;99.90;;;;;;4996083;28;20455;-77
2021/08/22 11:46:41;;;;;;;5.37;4.87;;;22.50;99.90;;;;;;4992920;28;20998;-77
2021/08/22 11:49:08;;;;;;;5.80;5.30;;;22.50;99.90;;;;;;4991252;28;20456;-78
2021/08/22 11:51:35;;;;;;;5.03;4.63;;;22.50;99.90;;;;;;4995250;28;20449;-77
2021/08/22 11:54:02;;;;;;;5.00;4.60;;;22.50;99.90;;;;;;4994516;28;20468;-77
2021/08/22 11:56:29;;;;;;;4.43;4.10;;;22.50;99.90;;;;;;4984872;28;20953;-77
2021/08/22 11:58:56;;;;;;;5.20;4.70;;;22.50;99.90;;;;;;4985463;28;20511;-77
2021/08/22 12:01:27;;;;;;;4.30;3.93;;;22.50;99.90;;;;;;4995508;28;20498;-77
2021/08/22 12:04:00;;;;;;;5.67;5.17;;;22.60;99.90;;;;;;4992346;28;20514;-77
2021/08/22 12:06:28;;;;;;;4.37;4.00;;;22.60;99.90;;;;;;4989294;28;20445;-77
2021/08/22 12:08:55;;;;;;;4.13;3.80;;;22.60;99.90;;;;;;4993827;28;20462;-77
2021/08/22 12:11:23;;;;;;;4.93;4.53;;;22.70;99.90;;;;;;4996669;28;20519;-78
2021/08/22 12:13:54;;;;;;;4.30;3.90;;;22.70;99.90;;;;;;4995925;28;20449;-77
2021/08/22 12:16:27;;;;;;;4.53;4.13;;;22.70;99.90;;;;;;4996653;28;20955;-77
2021/08/22 12:18:54;;;;;;;4.47;3.57;;;22.70;99.90;;;;;;5009805;28;21002;-78
2021/08/22 12:21:23;;;;;;;4.43;4.03;;;22.80;99.90;;;;;;4995835;28;20945;-77
2021/08/22 12:23:52;;;;;;;4.47;3.97;;;22.80;99.90;;;;;;4987961;28;20464;-78
2021/08/22 12:26:24;;;;;;;4.10;3.80;;;22.80;99.90;;;;;;4995803;28;20465;-77
2021/08/22 12:29:00;;;;;;;4.50;4.10;;;22.80;99.90;;;;;;5069325;27;20539;-76
2021/08/22 12:31:34;;;;;;;4.87;4.37;;;22.80;99.90;;;;;;5068307;28;20437;-75
2021/08/22 12:34:03;;;;;;;4.23;3.93;;;22.80;99.90;;;;;;5062929;28;20957;-75
2021/08/22 12:36:34;;;;;;;7.00;4.03;;;22.80;99.90;;;;;;5062716;28;20834;-75
2021/08/22 12:39:03;;;;;;;5.20;3.47;;;22.90;99.90;;;;;;5064339;28;20893;-76
2021/08/22 12:41:42;;;;;;;3.40;3.17;;;22.90;99.90;;;;;;5068593;28;20444;-76
2021/08/22 12:44:11;;;;;;;3.03;2.83;;;22.90;99.90;;;;;;5067101;28;20845;-75
2021/08/22 12:46:39;;;;;;;4.43;4.03;;;22.90;99.90;;;;;;5066921;28;20461;-75
2021/08/22 12:49:07;;;;;;;5.17;3.30;;;22.90;99.90;;;;;;5069066;28;20445;-75
2021/08/22 12:51:36;;;;;;;4.33;3.93;;;22.90;99.90;;;;;;5068474;28;20448;-77
2021/08/22 12:54:04;;;;;;;3.70;3.40;;;22.90;99.90;;;;;;5065892;28;20985;-77
2021/08/22 12:56:30;;;;;;;3.73;3.43;;;22.90;99.90;;;;;;5067895;28;20464;-76
2021/08/22 12:58:58;;;;;;;3.87;3.57;;;22.90;99.90;;;;;;5067079;28;20464;-77
2021/08/22 13:01:27;;;;;;;3.57;3.27;;;22.90;99.90;;;;;;5066147;28;20458;-75